Terminal Aerodrome Forecast
Issued by NWS

Home | Current Version | Previous Version | Text Only | Print | Product List | Glossary On
Versions: 1 2 3 4 5 6 7 8 9 10 11 12 13 14 15 16 17 18 19 20 21 22 23 24 25 26 27 28 29 30 31
969
FTUS46 KMTR 261737
TAFSFO
TAF
KSFO 261737Z 2618/2724 15006KT P6SM FEW015 BKN050 OVC150
     FM270200 16010KT P6SM -RA BKN030 OVC080
     FM270800 21008KT P6SM VCSH BKN020 OVC030
     FM271200 28012KT P6SM BKN030 OVC050
     FM271600 29015G22KT P6SM FEW040 SCT200=

USA.gov is the U.S. government's official web portal to all federal, state and local government web resources and services.